createdAt,value
2018-05-21T00:01:24.631Z,39.80
2018-05-21T00:03:55.186Z,40.00
2018-05-21T00:06:24.102Z,40.20
2018-05-21T00:08:58.085Z,40.20
2018-05-21T00:11:28.561Z,40.10
2018-05-21T00:13:57.009Z,40.50
2018-05-21T00:16:29.257Z,40.50
2018-05-21T00:18:59.090Z,40.40
2018-05-21T00:21:27.008Z,40.50
2018-05-21T00:24:00.026Z,40.60
2018-05-21T00:26:27.669Z,40.60
2018-05-21T00:28:55.481Z,40.80
2018-05-21T00:31:23.228Z,40.90
2018-05-21T00:33:53.245Z,41.00
2018-05-21T00:36:26.619Z,40.90
2018-05-21T00:38:54.421Z,41.00
2018-05-21T00:41:22.053Z,41.10
2018-05-21T00:43:50.371Z,41.10
2018-05-21T00:46:19.314Z,41.20
2018-05-21T00:48:47.092Z,41.30
2018-05-21T00:51:14.825Z,41.50
2018-05-21T00:53:43.538Z,41.70
2018-05-21T00:56:11.248Z,41.70
2018-05-21T00:58:39.805Z,41.90
2018-05-21T01:01:08.216Z,42.00
2018-05-21T01:03:35.907Z,41.80
2018-05-21T01:06:06.087Z,42.30
2018-05-21T01:08:34.065Z,42.30
2018-05-21T01:11:02.610Z,42.40
2018-05-21T01:13:31.584Z,42.60
2018-05-21T01:15:59.981Z,42.40
2018-05-21T01:18:27.727Z,42.60
2018-05-21T01:20:55.331Z,42.60
2018-05-21T01:23:22.944Z,42.70
2018-05-21T01:25:51.438Z,42.70
2018-05-21T01:28:19.163Z,42.80
2018-05-21T01:30:49.225Z,43.20
2018-05-21T01:33:17.732Z,43.10
2018-05-21T01:35:45.369Z,43.20
2018-05-21T01:38:13.001Z,43.30
2018-05-21T01:40:40.646Z,43.40
2018-05-21T01:43:08.316Z,43.50
2018-05-21T01:45:35.964Z,43.60
2018-05-21T01:48:04.304Z,43.40
2018-05-21T01:50:33.987Z,43.80
2018-05-21T01:53:01.689Z,43.70
2018-05-21T01:55:30.076Z,43.80
2018-05-21T01:57:58.002Z,43.70
2018-05-21T02:00:33.136Z,43.90
2018-05-21T02:03:01.969Z,44.00
2018-05-21T02:05:31.181Z,44.10
2018-05-21T02:07:58.932Z,44.00
2018-05-21T02:10:27.320Z,44.00
2018-05-21T02:12:56.084Z,44.00
2018-05-21T02:15:24.525Z,44.00
2018-05-21T02:17:53.514Z,44.00
2018-05-21T02:20:22.656Z,44.20
2018-05-21T02:22:51.998Z,44.20
2018-05-21T02:25:19.651Z,44.10
2018-05-21T02:27:47.839Z,44.20
2018-05-21T02:30:17.068Z,44.30
2018-05-21T02:32:44.679Z,44.30
2018-05-21T02:35:12.332Z,44.10
2018-05-21T02:37:40.797Z,44.10
2018-05-21T02:40:08.443Z,44.00
2018-05-21T02:42:37.170Z,44.00
2018-05-21T02:45:05.778Z,44.00
2018-05-21T02:47:33.688Z,44.00
2018-05-21T02:50:01.349Z,44.10
2018-05-21T02:52:28.978Z,44.20
2018-05-21T02:54:56.619Z,44.20
2018-05-21T02:57:25.837Z,44.30
2018-05-21T02:59:55.383Z,44.40
2018-05-21T03:02:24.837Z,44.50
2018-05-21T03:04:52.521Z,44.50
2018-05-21T03:07:23.245Z,44.80
2018-05-21T03:09:52.641Z,44.80
2018-05-21T03:12:24.110Z,44.90
2018-05-21T03:14:59.753Z,45.30
2018-05-21T03:17:27.391Z,45.20
2018-05-21T03:19:57.704Z,45.40
2018-05-21T03:22:28.180Z,45.40
2018-05-21T03:24:56.772Z,45.50
2018-05-21T03:27:25.010Z,45.60
2018-05-21T03:29:55.325Z,45.70
2018-05-21T03:32:26.315Z,45.70
2018-05-21T03:34:55.513Z,46.20
2018-05-21T03:37:24.401Z,45.70
2018-05-21T03:39:52.794Z,45.80
2018-05-21T03:42:20.498Z,46.00
2018-05-21T03:44:48.120Z,46.00
2018-05-21T03:47:15.739Z,46.10
2018-05-21T03:49:43.402Z,46.20
2018-05-21T03:52:11.798Z,46.30
2018-05-21T03:54:39.757Z,46.20
2018-05-21T03:57:07.370Z,46.30
2018-05-21T03:59:47.456Z,46.50
2018-05-21T04:02:27.517Z,46.70
2018-05-21T04:04:55.869Z,46.60
2018-05-21T04:07:26.080Z,46.80
2018-05-21T04:09:53.894Z,46.90
2018-05-21T04:12:25.322Z,47.00
2018-05-21T04:14:54.224Z,47.10
2018-05-21T04:17:22.845Z,47.10
2018-05-21T04:19:51.419Z,47.20
2018-05-21T04:22:20.385Z,47.40
2018-05-21T04:24:48.005Z,47.50
2018-05-21T04:27:16.588Z,47.90
2018-05-21T04:29:44.209Z,47.90
2018-05-21T04:32:11.882Z,48.00
2018-05-21T04:34:41.888Z,48.30
2018-05-21T04:37:09.562Z,48.20
2018-05-21T04:39:38.195Z,48.40
2018-05-21T04:42:06.599Z,48.70
2018-05-21T04:44:35.038Z,48.60
2018-05-21T04:47:10.165Z,48.70
2018-05-21T04:49:37.897Z,48.80
2018-05-21T04:52:05.472Z,49.00
2018-05-21T04:54:33.818Z,49.20
2018-05-21T04:57:01.424Z,49.10
2018-05-21T04:59:29.455Z,49.30
2018-05-21T05:01:57.176Z,49.70
2018-05-21T05:04:25.357Z,49.80
2018-05-21T05:06:54.063Z,50.10
2018-05-21T05:09:23.729Z,50.20
2018-05-21T05:11:56.653Z,50.50
2018-05-21T05:14:25.717Z,50.60
2018-05-21T05:16:55.653Z,50.80
2018-05-21T05:19:25.678Z,51.10
2018-05-21T05:21:54.183Z,51.00
2018-05-21T05:24:22.160Z,51.20
2018-05-21T05:26:52.732Z,51.30
2018-05-21T05:29:24.663Z,51.30
2018-05-21T05:31:59.278Z,51.20
2018-05-21T05:34:28.527Z,51.40
2018-05-21T05:36:57.535Z,51.30
2018-05-21T05:39:26.674Z,51.30
2018-05-21T05:41:55.168Z,51.30
2018-05-21T05:44:23.536Z,51.40
2018-05-21T05:46:52.487Z,51.70
2018-05-21T05:54:45.673Z,51.90
2018-05-21T05:57:13.314Z,51.70
2018-05-21T05:59:40.939Z,51.90
2018-05-21T06:02:08.571Z,51.80
2018-05-21T06:04:36.161Z,51.70
2018-05-21T06:07:19.426Z,51.90
2018-05-21T06:15:09.537Z,52.00
2018-05-21T06:17:37.148Z,51.90
2018-05-21T06:20:04.790Z,51.70
2018-05-21T06:22:33.188Z,51.80
2018-05-21T06:25:00.819Z,51.70
2018-05-21T06:27:28.452Z,51.70
2018-05-21T06:29:56.101Z,51.70
2018-05-21T06:32:23.729Z,51.70
2018-05-21T06:34:51.340Z,52.30
2018-05-21T06:37:18.942Z,51.90
2018-05-21T06:39:47.317Z,52.30
2018-05-21T06:42:14.909Z,51.70
2018-05-21T06:44:43.293Z,51.50
2018-05-21T06:48:05.889Z,51.50
2018-05-21T06:50:33.526Z,51.50
2018-05-21T06:53:01.148Z,51.80
2018-05-21T06:55:28.824Z,51.80
2018-05-21T06:57:57.955Z,51.90
2018-05-21T07:00:26.346Z,51.90
2018-05-21T07:02:53.995Z,51.90
2018-05-21T07:05:21.819Z,52.00
2018-05-21T07:07:49.538Z,51.80
2018-05-21T07:10:17.946Z,52.00
2018-05-21T07:12:46.320Z,51.90
2018-05-21T07:15:13.929Z,51.90
2018-05-21T07:17:42.401Z,52.10
2018-05-21T07:20:10.041Z,52.10
2018-05-21T07:22:39.509Z,51.80
2018-05-21T07:25:07.119Z,51.70
2018-05-21T07:27:34.721Z,51.90
2018-05-21T07:33:00.816Z,52.70
2018-05-21T07:35:29.364Z,52.30
2018-05-21T07:37:59.750Z,52.10
2018-05-21T07:40:27.406Z,51.80
2018-05-21T07:42:55.413Z,51.90
2018-05-21T07:45:24.901Z,51.90
2018-05-21T07:47:53.791Z,52.20
2018-05-21T07:50:22.055Z,52.10
2018-05-21T07:52:50.117Z,52.00
2018-05-21T07:55:18.474Z,52.00
2018-05-21T07:57:46.041Z,51.90
2018-05-21T08:00:27.850Z,52.10
2018-05-21T08:02:55.679Z,51.90
2018-05-21T08:05:25.038Z,52.30
2018-05-21T08:07:53.894Z,52.10
2018-05-21T08:10:22.274Z,52.00
2018-05-21T08:12:54.979Z,51.80
2018-05-21T08:15:25.554Z,51.80
2018-05-21T08:17:58.751Z,51.20
2018-05-21T08:20:27.203Z,50.40
2018-05-21T08:22:55.223Z,50.30
2018-05-21T08:25:26.820Z,49.70
2018-05-21T08:27:55.768Z,50.00
2018-05-21T08:30:26.244Z,50.60
2018-05-21T08:32:55.359Z,49.80
2018-05-21T08:35:24.055Z,49.10
2018-05-21T08:37:52.518Z,49.00
2018-05-21T08:40:27.611Z,48.20
2018-05-21T08:42:59.372Z,47.80
2018-05-21T08:45:30.014Z,47.60
2018-05-21T08:47:58.986Z,46.60
2018-05-21T08:50:27.551Z,46.50
2018-05-21T08:52:55.946Z,46.40
2018-05-21T08:55:24.416Z,46.10
2018-05-21T09:00:32.737Z,45.50
2018-05-21T09:03:00.246Z,45.60
2018-05-21T09:05:28.833Z,45.40
2018-05-21T09:07:58.493Z,45.50
2018-05-21T09:10:28.883Z,45.00
2018-05-21T09:12:57.794Z,44.80
2018-05-21T09:15:25.474Z,44.60
2018-05-21T09:17:54.264Z,44.20
2018-05-21T09:20:21.971Z,43.70
2018-05-21T09:22:50.974Z,43.70
2018-05-21T09:25:18.603Z,43.80
2018-05-21T09:27:48.072Z,42.90
2018-05-21T09:30:15.670Z,42.80
2018-05-21T09:32:44.117Z,42.70
2018-05-21T09:35:12.111Z,42.60
2018-05-21T09:37:40.579Z,41.80
2018-05-21T09:40:08.205Z,41.70
2018-05-21T09:42:35.872Z,41.70
2018-05-21T09:45:06.853Z,41.20
2018-05-21T09:47:36.704Z,40.10
2018-05-21T09:50:06.136Z,40.00
2018-05-21T09:52:34.969Z,39.80
2018-05-21T09:55:04.296Z,40.20
2018-05-21T09:57:32.214Z,40.20
2018-05-21T10:00:00.617Z,40.10
2018-05-21T10:02:28.650Z,39.90
2018-05-21T10:04:56.358Z,40.30
2018-05-21T10:07:25.016Z,39.60
2018-05-21T10:09:54.945Z,39.50
2018-05-21T10:12:24.274Z,39.40
2018-05-21T10:14:53.973Z,39.40
2018-05-21T10:17:23.781Z,39.10
2018-05-21T10:19:53.673Z,38.80
2018-05-21T10:22:22.918Z,39.30
2018-05-21T10:24:50.654Z,39.20
2018-05-21T10:27:18.275Z,39.30
2018-05-21T10:29:47.682Z,39.70
2018-05-21T10:32:16.160Z,39.00
2018-05-21T10:34:43.834Z,39.00
2018-05-21T10:37:12.123Z,38.90
2018-05-21T10:39:40.514Z,38.50
2018-05-21T10:42:09.204Z,38.40
2018-05-21T10:44:37.377Z,38.40
2018-05-21T10:47:05.845Z,38.60
2018-05-21T10:49:34.528Z,37.80
2018-05-21T10:52:03.628Z,38.10
2018-05-21T10:54:31.694Z,38.00
2018-05-21T10:56:59.765Z,38.00
2018-05-21T10:59:27.552Z,38.10
2018-05-21T11:01:56.790Z,37.50
2018-05-21T11:04:26.493Z,37.50
2018-05-21T11:06:56.368Z,37.80
2018-05-21T11:09:24.576Z,37.20
2018-05-21T11:11:54.134Z,37.10
2018-05-21T11:14:27.418Z,37.00
2018-05-21T11:16:56.834Z,37.00
2018-05-21T11:19:24.535Z,37.00
2018-05-21T11:21:52.853Z,37.20
2018-05-21T11:24:21.661Z,36.80
2018-05-21T11:26:57.870Z,36.80
2018-05-21T11:29:27.272Z,36.70
2018-05-21T11:31:56.713Z,36.70
2018-05-21T11:34:24.999Z,36.40
2018-05-21T11:36:54.274Z,36.60
2018-05-21T11:39:22.855Z,36.70
2018-05-21T11:41:50.515Z,36.80
2018-05-21T11:44:18.540Z,36.00
2018-05-21T11:46:47.007Z,35.80
2018-05-21T11:49:15.363Z,35.70
2018-05-21T11:51:44.242Z,35.10
2018-05-21T11:54:11.946Z,35.10
2018-05-21T11:56:40.759Z,35.30
2018-05-21T11:59:08.529Z,35.40
2018-05-21T12:01:37.056Z,35.40
2018-05-21T12:04:04.756Z,35.20
2018-05-21T12:06:32.455Z,35.30
2018-05-21T12:09:01.047Z,35.80
2018-05-21T12:11:31.289Z,35.20
2018-05-21T12:14:08.775Z,34.70
2018-05-21T12:16:36.394Z,34.60
2018-05-21T12:19:04.069Z,34.40
2018-05-21T12:21:31.808Z,34.60
2018-05-21T12:24:04.371Z,35.00
2018-05-21T12:26:32.763Z,35.10
2018-05-21T12:29:04.435Z,34.40
2018-05-21T12:31:32.168Z,33.90
2018-05-21T12:34:01.415Z,35.40
2018-05-21T12:36:31.808Z,34.50
2018-05-21T12:39:03.340Z,35.00
2018-05-21T12:41:33.935Z,35.40
2018-05-21T12:44:02.526Z,34.80
2018-05-21T12:46:30.846Z,34.40
2018-05-21T12:48:58.991Z,34.80
2018-05-21T12:51:26.789Z,34.70
2018-05-21T12:53:54.498Z,34.30
2018-05-21T12:56:23.667Z,34.30
2018-05-21T12:58:51.277Z,34.20
2018-05-21T13:01:18.913Z,34.60
2018-05-21T13:03:47.215Z,34.20
2018-05-21T13:06:14.871Z,33.90
2018-05-21T13:08:42.510Z,34.70
2018-05-21T13:11:10.115Z,34.70
2018-05-21T13:13:39.514Z,34.50
2018-05-21T13:16:07.133Z,34.40
2018-05-21T13:18:40.280Z,34.80
2018-05-21T13:21:18.266Z,34.50
2018-05-21T13:23:48.711Z,34.10
2018-05-21T13:26:20.852Z,34.10
2018-05-21T13:28:50.455Z,33.70
2018-05-21T13:31:22.450Z,34.10
2018-05-21T13:33:51.268Z,33.80
2018-05-21T13:36:19.726Z,33.50
2018-05-21T13:38:47.306Z,33.50
2018-05-21T13:41:14.922Z,33.70
2018-05-21T13:43:42.552Z,33.60
2018-05-21T13:46:10.179Z,33.20
2018-05-21T13:48:38.242Z,33.40
2018-05-21T13:51:05.927Z,33.50
2018-05-21T13:53:34.744Z,33.50
2018-05-21T13:56:03.452Z,33.10
2018-05-21T13:58:35.896Z,33.10
2018-05-21T14:01:07.156Z,33.00
2018-05-21T14:03:34.918Z,32.90
2018-05-21T14:06:06.052Z,32.50
2018-05-21T14:08:35.416Z,32.20
2018-05-21T14:11:03.011Z,31.80
2018-05-21T14:13:32.683Z,32.20
2018-05-21T14:16:02.359Z,32.50
2018-05-21T14:18:30.821Z,30.90
2018-05-21T14:21:01.237Z,30.90
2018-05-21T14:23:31.762Z,31.70
2018-05-21T14:26:01.734Z,31.30
2018-05-21T14:28:31.029Z,31.30
2018-05-21T14:31:03.694Z,31.00
2018-05-21T14:33:35.454Z,31.00
2018-05-21T14:36:03.659Z,31.40
2018-05-21T14:38:34.301Z,31.30
2018-05-21T14:41:02.601Z,30.70
2018-05-21T14:43:32.599Z,30.70
2018-05-21T14:46:00.251Z,31.20
2018-05-21T14:48:29.648Z,31.20
2018-05-21T14:51:05.034Z,30.40
2018-05-21T14:53:37.328Z,31.10
2018-05-21T14:56:06.498Z,30.40
2018-05-21T14:58:34.768Z,30.30
2018-05-21T15:01:03.495Z,30.30
2018-05-21T15:03:32.550Z,29.90
2018-05-21T15:06:03.108Z,29.80
2018-05-21T15:08:30.827Z,30.30
2018-05-21T15:11:00.066Z,29.80
2018-05-21T15:13:29.500Z,30.10
2018-05-21T15:16:00.802Z,30.50
2018-05-21T15:18:30.356Z,30.30
2018-05-21T15:21:00.062Z,30.20
2018-05-21T15:23:29.279Z,29.90
2018-05-21T15:25:58.202Z,29.60
2018-05-21T15:28:28.076Z,29.30
2018-05-21T15:31:02.668Z,29.40
2018-05-21T15:33:31.184Z,29.60
2018-05-21T15:36:02.317Z,29.80
2018-05-21T15:38:34.254Z,29.30
2018-05-21T15:41:02.783Z,29.40
2018-05-21T15:43:35.445Z,29.60
2018-05-21T15:46:05.609Z,29.60
2018-05-21T15:48:34.381Z,29.60
2018-05-21T15:51:04.442Z,29.80
2018-05-21T15:53:33.816Z,29.40
2018-05-21T15:56:03.479Z,29.40
2018-05-21T15:58:33.733Z,29.40
2018-05-21T16:01:03.081Z,29.30
2018-05-21T16:03:34.354Z,29.40
2018-05-21T16:06:04.849Z,29.30
2018-05-21T16:08:33.538Z,28.90
2018-05-21T16:11:02.109Z,29.60
2018-05-21T16:13:31.754Z,29.60
2018-05-21T16:16:04.318Z,29.10
2018-05-21T16:18:32.132Z,28.90
2018-05-21T16:21:01.626Z,29.20
2018-05-21T16:23:32.647Z,29.00
2018-05-21T16:26:05.255Z,29.30
2018-05-21T16:31:06.195Z,29.30
2018-05-21T16:33:35.765Z,28.90
2018-05-21T16:36:04.436Z,29.40
2018-05-21T16:38:33.231Z,29.20
2018-05-21T16:41:01.333Z,29.20
2018-05-21T16:43:31.235Z,28.70
2018-05-21T16:45:59.638Z,28.60
2018-05-21T16:48:30.922Z,28.60
2018-05-21T16:51:01.380Z,28.80
2018-05-21T16:53:35.435Z,28.70
2018-05-21T16:56:05.046Z,29.40
2018-05-21T16:58:36.399Z,29.10
2018-05-21T17:01:04.856Z,29.30
2018-05-21T17:03:34.953Z,29.50
2018-05-21T17:06:07.210Z,29.50
2018-05-21T17:08:41.578Z,29.40
2018-05-21T17:11:10.770Z,29.30
2018-05-21T17:13:39.414Z,29.10
2018-05-21T17:16:08.216Z,29.00
2018-05-21T17:18:35.920Z,29.50
2018-05-21T17:21:04.562Z,29.50
2018-05-21T17:23:34.004Z,29.80
2018-05-21T17:26:04.218Z,29.90
2018-05-21T17:28:32.165Z,29.80
2018-05-21T17:31:06.337Z,30.00
2018-05-21T17:33:34.427Z,30.00
2018-05-21T17:36:03.065Z,30.00
2018-05-21T17:38:30.762Z,29.90
2018-05-21T17:40:59.577Z,30.00
2018-05-21T17:43:29.829Z,30.00
2018-05-21T17:45:59.800Z,30.00
2018-05-21T17:48:28.317Z,29.90
2018-05-21T17:50:55.999Z,30.20
2018-05-21T17:53:25.295Z,30.60
2018-05-21T17:55:53.771Z,30.60
2018-05-21T17:58:23.935Z,31.00
2018-05-21T18:00:52.747Z,31.30
2018-05-21T18:03:20.441Z,31.70
2018-05-21T18:05:49.029Z,31.80
2018-05-21T18:08:18.482Z,32.20
2018-05-21T18:10:46.449Z,32.20
2018-05-21T18:13:15.669Z,32.20
2018-05-21T18:15:43.539Z,32.50
2018-05-21T18:18:11.242Z,32.70
2018-05-21T18:20:39.777Z,33.00
2018-05-21T18:23:07.927Z,33.10
2018-05-21T18:25:36.610Z,33.20
2018-05-21T18:28:04.243Z,33.50
2018-05-21T18:30:33.263Z,33.90
2018-05-21T18:33:01.003Z,34.10
2018-05-21T18:35:36.729Z,34.30
2018-05-21T18:38:05.592Z,34.20
2018-05-21T18:40:34.005Z,34.50
2018-05-21T18:43:02.393Z,34.40
2018-05-21T18:45:30.061Z,34.70
2018-05-21T18:47:59.686Z,35.00
2018-05-21T18:50:30.129Z,35.00
2018-05-21T18:53:01.102Z,35.00
2018-05-21T18:58:07.989Z,35.40
2018-05-21T19:00:40.096Z,35.30
2018-05-21T19:03:08.752Z,35.40
2018-05-21T19:05:37.205Z,35.70
2018-05-21T19:08:05.634Z,35.80
2018-05-21T19:10:33.303Z,35.80
2018-05-21T19:13:01.082Z,36.00
2018-05-21T19:15:29.494Z,36.00
2018-05-21T19:17:57.973Z,35.90
2018-05-21T19:20:26.443Z,36.20
2018-05-21T19:22:54.351Z,36.10
2018-05-21T19:25:23.184Z,36.40
2018-05-21T19:27:52.004Z,36.40
2018-05-21T19:30:20.577Z,36.70
2018-05-21T19:32:48.361Z,36.60
2018-05-21T19:35:16.401Z,37.00
2018-05-21T19:37:47.026Z,36.90
2018-05-21T19:40:17.251Z,36.90
2018-05-21T19:42:46.755Z,37.20
2018-05-21T19:45:14.393Z,37.30
2018-05-21T19:47:42.209Z,37.40
2018-05-21T19:50:11.178Z,37.50
2018-05-21T19:52:40.050Z,37.40
2018-05-21T19:55:09.132Z,37.80
2018-05-21T19:57:36.873Z,37.80
2018-05-21T20:00:04.603Z,37.90
2018-05-21T20:02:33.266Z,38.00
2018-05-21T20:05:03.225Z,38.10
2018-05-21T20:07:32.231Z,38.10
2018-05-21T20:10:00.028Z,38.30
2018-05-21T20:12:31.487Z,38.40
2018-05-21T20:15:03.836Z,38.60
2018-05-21T20:17:34.273Z,38.70
2018-05-21T20:20:04.379Z,38.60
2018-05-21T20:22:34.686Z,38.70
2018-05-21T20:25:04.744Z,38.70
2018-05-21T20:27:32.889Z,38.70
2018-05-21T20:30:03.109Z,38.70
2018-05-21T20:32:33.171Z,38.80
2018-05-21T20:35:01.679Z,38.70
2018-05-21T20:37:33.888Z,38.90
2018-05-21T20:40:02.559Z,39.00
2018-05-21T20:42:32.691Z,39.00
2018-05-21T20:45:03.004Z,38.90
2018-05-21T20:47:31.465Z,39.10
2018-05-21T20:50:05.119Z,39.20
2018-05-21T20:52:34.875Z,39.30
2018-05-21T20:55:05.120Z,39.40
2018-05-21T20:57:36.275Z,39.50
2018-05-21T21:00:03.974Z,39.50
2018-05-21T21:02:33.296Z,39.50
2018-05-21T21:05:01.202Z,39.70
2018-05-21T21:07:35.234Z,39.60
2018-05-21T21:10:04.663Z,39.80
2018-05-21T21:12:35.565Z,39.80
2018-05-21T21:15:04.372Z,39.80
2018-05-21T21:17:36.151Z,39.90
2018-05-21T21:20:06.521Z,40.00
2018-05-21T21:22:39.189Z,40.10
2018-05-21T21:25:06.828Z,40.10
2018-05-21T21:27:35.481Z,40.30
2018-05-21T21:30:06.664Z,40.40
2018-05-21T21:32:34.338Z,40.50
2018-05-21T21:35:03.461Z,40.60
2018-05-21T21:37:34.927Z,40.60
2018-05-21T21:40:06.313Z,40.50
2018-05-21T21:42:35.352Z,40.70
2018-05-21T21:45:04.172Z,40.80
2018-05-21T21:47:38.185Z,40.80
2018-05-21T21:50:07.084Z,40.90
2018-05-21T21:52:34.892Z,40.80
2018-05-21T21:55:02.609Z,40.90
2018-05-21T21:57:33.276Z,40.80
2018-05-21T22:00:03.871Z,40.80
2018-05-21T22:02:40.644Z,40.60
2018-05-21T22:05:09.615Z,40.70
2018-05-21T22:07:38.083Z,40.80
2018-05-21T22:10:06.959Z,40.80
2018-05-21T22:12:35.004Z,40.80
2018-05-21T22:15:03.586Z,41.00
2018-05-21T22:17:31.176Z,41.00
2018-05-21T22:19:59.375Z,41.20
2018-05-21T22:22:34.309Z,41.30
2018-05-21T22:25:03.094Z,41.50
2018-05-21T22:27:32.525Z,41.50
2018-05-21T22:30:00.216Z,41.40
2018-05-21T22:32:37.074Z,41.40
2018-05-21T22:35:07.291Z,41.20
2018-05-21T22:37:39.446Z,41.50
2018-05-21T22:40:08.163Z,41.50
2018-05-21T22:42:36.698Z,41.50
2018-05-21T22:45:05.481Z,41.80
2018-05-21T22:47:34.968Z,41.80
2018-05-21T22:50:05.193Z,41.80
2018-05-21T22:52:35.809Z,41.80
2018-05-21T22:55:05.234Z,42.20
2018-05-21T22:57:36.221Z,42.10
2018-05-21T23:00:09.516Z,42.20
2018-05-21T23:02:42.577Z,42.30
2018-05-21T23:05:11.114Z,42.50
2018-05-21T23:07:38.906Z,42.40
2018-05-21T23:10:09.710Z,42.60
2018-05-21T23:12:37.534Z,42.70
2018-05-21T23:15:07.983Z,42.80
2018-05-21T23:17:37.173Z,42.70
2018-05-21T23:20:07.516Z,42.90
2018-05-21T23:22:51.441Z,43.00
2018-05-21T23:25:19.722Z,43.20
2018-05-21T23:27:47.299Z,43.00
2018-05-21T23:30:16.554Z,43.20
2018-05-21T23:32:44.292Z,43.30
2018-05-21T23:35:12.083Z,43.40
2018-05-21T23:37:40.796Z,43.50
2018-05-21T23:40:09.605Z,43.40
2018-05-21T23:42:37.668Z,43.40
2018-05-21T23:45:07.144Z,43.50
2018-05-21T23:47:36.565Z,43.30
2018-05-21T23:50:05.406Z,43.50
2018-05-21T23:52:36.968Z,43.70
2018-05-21T23:55:09.806Z,43.60
2018-05-21T23:57:38.385Z,43.40
